Cedar Valley, Minnesota
Current Conditions -  °F | °C
As of 10:16 AM on Wednesday 26 Nov 2014 (Local Time) from KCOQ Reporting Station
Overcast Overcast  
Wind Chill:   Ceiling: 1500
Heat Index: 19°   Visibility: 10mi
Dew Point: 12°   Wind: 8mph
Humidity: 74%   Direction: 350°N
Pressure: 30.17"   Gusts: NA
Location:  46.9584°N, 92.9445°W
Report Text: KCOQ 261616Z AUTO 35007KT 10SM BKN015 OVC095 M07/M11 A3017 RMK AO2
Loading
Personal Weather Stations






























Interactive Weather Map New forecast layout! Learn more

10-Day Weather Forecast

Advertisements
Track Severe Weather on mobile